HTIR

Iringa Airport

Nduli, Tanzania
METAR HTIR 171300Z 12010KT 9999 FEW025 30/10 Q1017
Observed Flight Rules
Feb-17 @ 13:00 UTC (9 hours ago) Visual Flight Rules
Wind Visibility Clouds
120° at 10 knots 10,000+ meters
  • Few at 2,500' AGL
Temperatures Readings
Current 30°C / 86°F
Dewpoint 10°C / 50°F
Humidity 29%
Altimeter 30.03" Hg
Pressure 1017 hPa
Elevation 1428
METAR HTIR 171300Z 12010KT 9999 FEW025 30/10 Q1017
Observed Flight Rules
Feb-17 @ 13:00 UTC
(9 hours ago)
VFR
Wind Visibility
120° at 10 knots 10,000+ meters
Clouds
  • Few at 2,500' AGL
Temperature Dewpoint
30°C / 86°F 10°C / 50°F
Humidity Altimeter Pressure
29% 30.03" Hg 1017 hPa